sensor_id;sensor_type;location;lat;lon;timestamp;temperature;humidity
19945;DHT22;10134;50.952;6.930;2023-04-08T00:00:23;9.70;99.90
19945;DHT22;10134;50.952;6.930;2023-04-08T00:02:50;9.70;99.90
19945;DHT22;10134;50.952;6.930;2023-04-08T00:05:18;9.70;99.90
19945;DHT22;10134;50.952;6.930;2023-04-08T00:07:45;9.70;99.90
19945;DHT22;10134;50.952;6.930;2023-04-08T00:10:12;9.70;99.90
19945;DHT22;10134;50.952;6.930;2023-04-08T00:12:40;9.70;99.90
19945;DHT22;10134;50.952;6.930;2023-04-08T00:15:07;9.70;99.90
19945;DHT22;10134;50.952;6.930;2023-04-08T00:17:35;9.70;99.90
19945;DHT22;10134;50.952;6.930;2023-04-08T00:20:02;9.70;99.90
19945;DHT22;10134;50.952;6.930;2023-04-08T00:22:30;9.70;99.90
19945;DHT22;10134;50.952;6.930;2023-04-08T00:24:57;9.70;99.90
19945;DHT22;10134;50.952;6.930;2023-04-08T00:27:24;9.70;99.90
19945;DHT22;10134;50.952;6.930;2023-04-08T00:29:52;9.70;99.90
19945;DHT22;10134;50.952;6.930;2023-04-08T00:32:19;9.70;99.90
19945;DHT22;10134;50.952;6.930;2023-04-08T00:34:48;9.70;99.90
19945;DHT22;10134;50.952;6.930;2023-04-08T00:37:15;9.70;99.90
19945;DHT22;10134;50.952;6.930;2023-04-08T00:39:43;9.70;99.90
19945;DHT22;10134;50.952;6.930;2023-04-08T00:42:11;9.70;99.90
19945;DHT22;10134;50.952;6.930;2023-04-08T00:44:38;9.70;99.90
19945;DHT22;10134;50.952;6.930;2023-04-08T00:47:05;9.70;99.90
19945;DHT22;10134;50.952;6.930;2023-04-08T00:49:33;9.70;99.90
19945;DHT22;10134;50.952;6.930;2023-04-08T00:52:00;9.70;99.90
19945;DHT22;10134;50.952;6.930;2023-04-08T00:54:27;9.70;99.90
19945;DHT22;10134;50.952;6.930;2023-04-08T00:56:55;9.70;99.90
19945;DHT22;10134;50.952;6.930;2023-04-08T00:59:22;9.70;99.90
19945;DHT22;10134;50.952;6.930;2023-04-08T01:05:11;9.70;99.90
19945;DHT22;10134;50.952;6.930;2023-04-08T01:07:44;9.70;99.90
19945;DHT22;10134;50.952;6.930;2023-04-08T01:10:29;9.70;99.90
19945;DHT22;10134;50.952;6.930;2023-04-08T01:13:08;9.70;99.90
19945;DHT22;10134;50.952;6.930;2023-04-08T01:15:38;9.70;99.90
19945;DHT22;10134;50.952;6.930;2023-04-08T01:18:09;9.70;99.90
19945;DHT22;10134;50.952;6.930;2023-04-08T01:20:41;9.70;99.90
19945;DHT22;10134;50.952;6.930;2023-04-08T01:23:36;9.70;99.90
19945;DHT22;10134;50.952;6.930;2023-04-08T01:26:05;9.70;99.90
19945;DHT22;10134;50.952;6.930;2023-04-08T01:28:32;9.70;99.90
19945;DHT22;10134;50.952;6.930;2023-04-08T01:31:02;9.70;99.90
19945;DHT22;10134;50.952;6.930;2023-04-08T01:33:30;9.70;99.90
19945;DHT22;10134;50.952;6.930;2023-04-08T01:35:58;9.70;99.90
19945;DHT22;10134;50.952;6.930;2023-04-08T01:38:29;9.70;99.90
19945;DHT22;10134;50.952;6.930;2023-04-08T01:40:58;9.70;99.90
19945;DHT22;10134;50.952;6.930;2023-04-08T01:43:26;9.70;99.90
19945;DHT22;10134;50.952;6.930;2023-04-08T01:45:53;9.70;99.90
19945;DHT22;10134;50.952;6.930;2023-04-08T01:48:24;9.70;99.90
19945;DHT22;10134;50.952;6.930;2023-04-08T01:50:54;9.70;99.90
19945;DHT22;10134;50.952;6.930;2023-04-08T01:53:22;9.70;99.90
19945;DHT22;10134;50.952;6.930;2023-04-08T01:55:55;9.60;99.90
19945;DHT22;10134;50.952;6.930;2023-04-08T01:58:24;9.60;99.90
19945;DHT22;10134;50.952;6.930;2023-04-08T02:00:53;9.60;99.90
19945;DHT22;10134;50.952;6.930;2023-04-08T02:03:23;9.60;99.90
19945;DHT22;10134;50.952;6.930;2023-04-08T02:05:51;9.60;99.90
19945;DHT22;10134;50.952;6.930;2023-04-08T02:08:19;9.60;99.90
19945;DHT22;10134;50.952;6.930;2023-04-08T02:10:46;9.60;99.90
19945;DHT22;10134;50.952;6.930;2023-04-08T02:13:14;9.70;99.90
19945;DHT22;10134;50.952;6.930;2023-04-08T02:15:46;9.70;99.90
19945;DHT22;10134;50.952;6.930;2023-04-08T02:18:24;9.70;99.90
19945;DHT22;10134;50.952;6.930;2023-04-08T02:21:06;9.60;99.90
19945;DHT22;10134;50.952;6.930;2023-04-08T02:23:37;9.60;99.90
19945;DHT22;10134;50.952;6.930;2023-04-08T02:26:11;9.60;99.90
19945;DHT22;10134;50.952;6.930;2023-04-08T02:28:40;9.60;99.90
19945;DHT22;10134;50.952;6.930;2023-04-08T02:31:10;9.60;99.90
19945;DHT22;10134;50.952;6.930;2023-04-08T02:33:45;9.60;99.90
19945;DHT22;10134;50.952;6.930;2023-04-08T02:36:13;9.60;99.90
19945;DHT22;10134;50.952;6.930;2023-04-08T02:38:41;9.60;99.90
19945;DHT22;10134;50.952;6.930;2023-04-08T02:41:09;9.60;99.90
19945;DHT22;10134;50.952;6.930;2023-04-08T02:43:36;9.50;99.90
19945;DHT22;10134;50.952;6.930;2023-04-08T02:46:05;9.50;99.90
19945;DHT22;10134;50.952;6.930;2023-04-08T02:48:35;9.60;99.90
19945;DHT22;10134;50.952;6.930;2023-04-08T02:51:02;9.60;99.90
19945;DHT22;10134;50.952;6.930;2023-04-08T02:53:30;9.60;99.90
19945;DHT22;10134;50.952;6.930;2023-04-08T02:55:57;9.60;99.90
19945;DHT22;10134;50.952;6.930;2023-04-08T02:58:24;9.50;99.90
19945;DHT22;10134;50.952;6.930;2023-04-08T03:00:52;9.50;99.90
19945;DHT22;10134;50.952;6.930;2023-04-08T03:03:19;9.50;99.90
19945;DHT22;10134;50.952;6.930;2023-04-08T03:05:54;9.60;99.90
19945;DHT22;10134;50.952;6.930;2023-04-08T03:08:22;9.60;99.90
19945;DHT22;10134;50.952;6.930;2023-04-08T03:10:49;9.60;99.90
19945;DHT22;10134;50.952;6.930;2023-04-08T03:13:16;9.60;99.90
19945;DHT22;10134;50.952;6.930;2023-04-08T03:15:44;9.60;99.90
19945;DHT22;10134;50.952;6.930;2023-04-08T03:18:11;9.60;99.90
19945;DHT22;10134;50.952;6.930;2023-04-08T03:20:38;9.60;99.90
19945;DHT22;10134;50.952;6.930;2023-04-08T03:23:06;9.50;99.90
19945;DHT22;10134;50.952;6.930;2023-04-08T03:25:33;9.50;99.90
19945;DHT22;10134;50.952;6.930;2023-04-08T03:28:00;9.50;99.90
19945;DHT22;10134;50.952;6.930;2023-04-08T03:30:28;9.50;99.90
19945;DHT22;10134;50.952;6.930;2023-04-08T03:32:55;9.50;99.90
19945;DHT22;10134;50.952;6.930;2023-04-08T03:35:23;9.50;99.90
19945;DHT22;10134;50.952;6.930;2023-04-08T03:37:50;9.50;99.90
19945;DHT22;10134;50.952;6.930;2023-04-08T03:40:17;9.50;99.90
19945;DHT22;10134;50.952;6.930;2023-04-08T03:42:45;9.50;99.90
19945;DHT22;10134;50.952;6.930;2023-04-08T03:45:12;9.50;99.90
19945;DHT22;10134;50.952;6.930;2023-04-08T03:47:40;9.50;99.90
19945;DHT22;10134;50.952;6.930;2023-04-08T03:50:07;9.50;99.90
19945;DHT22;10134;50.952;6.930;2023-04-08T03:52:35;9.50;99.90
19945;DHT22;10134;50.952;6.930;2023-04-08T03:55:02;9.50;99.90
19945;DHT22;10134;50.952;6.930;2023-04-08T03:57:29;9.50;99.90
19945;DHT22;10134;50.952;6.930;2023-04-08T03:59:57;9.50;99.90
19945;DHT22;10134;50.952;6.930;2023-04-08T04:02:24;9.50;99.90
19945;DHT22;10134;50.952;6.930;2023-04-08T04:04:52;9.50;99.90
19945;DHT22;10134;50.952;6.930;2023-04-08T04:07:19;9.50;99.90
19945;DHT22;10134;50.952;6.930;2023-04-08T04:09:46;9.40;99.90
19945;DHT22;10134;50.952;6.930;2023-04-08T04:12:13;9.40;99.90
19945;DHT22;10134;50.952;6.930;2023-04-08T04:14:41;9.50;99.90
19945;DHT22;10134;50.952;6.930;2023-04-08T04:17:08;9.50;99.90
19945;DHT22;10134;50.952;6.930;2023-04-08T04:19:35;9.40;99.90
19945;DHT22;10134;50.952;6.930;2023-04-08T04:22:03;9.40;99.90
19945;DHT22;10134;50.952;6.930;2023-04-08T04:24:30;9.40;99.90
19945;DHT22;10134;50.952;6.930;2023-04-08T04:26:57;9.40;99.90
19945;DHT22;10134;50.952;6.930;2023-04-08T04:29:24;9.50;99.90
19945;DHT22;10134;50.952;6.930;2023-04-08T04:31:52;9.50;99.90
19945;DHT22;10134;50.952;6.930;2023-04-08T04:34:19;9.50;99.90
19945;DHT22;10134;50.952;6.930;2023-04-08T04:36:46;9.40;99.90
19945;DHT22;10134;50.952;6.930;2023-04-08T04:39:13;9.40;99.90
19945;DHT22;10134;50.952;6.930;2023-04-08T04:41:42;9.40;99.90
19945;DHT22;10134;50.952;6.930;2023-04-08T04:44:10;9.40;99.90
19945;DHT22;10134;50.952;6.930;2023-04-08T04:46:39;9.40;99.90
19945;DHT22;10134;50.952;6.930;2023-04-08T04:49:07;9.40;99.90
19945;DHT22;10134;50.952;6.930;2023-04-08T04:51:34;9.40;99.90
19945;DHT22;10134;50.952;6.930;2023-04-08T04:54:01;9.40;99.90
19945;DHT22;10134;50.952;6.930;2023-04-08T04:56:29;9.40;99.90
19945;DHT22;10134;50.952;6.930;2023-04-08T04:58:57;9.40;99.90
19945;DHT22;10134;50.952;6.930;2023-04-08T05:01:24;9.50;99.90
19945;DHT22;10134;50.952;6.930;2023-04-08T05:03:52;9.40;99.90
19945;DHT22;10134;50.952;6.930;2023-04-08T05:06:19;9.40;99.90
19945;DHT22;10134;50.952;6.930;2023-04-08T05:08:46;9.40;99.90
19945;DHT22;10134;50.952;6.930;2023-04-08T05:11:14;9.40;99.90
19945;DHT22;10134;50.952;6.930;2023-04-08T05:13:44;9.40;99.90
19945;DHT22;10134;50.952;6.930;2023-04-08T05:16:12;9.40;99.90
19945;DHT22;10134;50.952;6.930;2023-04-08T05:18:39;9.50;99.90
19945;DHT22;10134;50.952;6.930;2023-04-08T05:21:07;9.50;99.90
19945;DHT22;10134;50.952;6.930;2023-04-08T05:23:34;9.50;99.90
19945;DHT22;10134;50.952;6.930;2023-04-08T05:26:01;9.50;99.90
19945;DHT22;10134;50.952;6.930;2023-04-08T05:28:29;9.50;99.90
19945;DHT22;10134;50.952;6.930;2023-04-08T05:30:56;9.50;99.90
19945;DHT22;10134;50.952;6.930;2023-04-08T05:33:23;9.50;99.90
19945;DHT22;10134;50.952;6.930;2023-04-08T05:35:52;9.50;99.90
19945;DHT22;10134;50.952;6.930;2023-04-08T05:38:19;9.50;99.90
19945;DHT22;10134;50.952;6.930;2023-04-08T05:40:47;9.50;99.90
19945;DHT22;10134;50.952;6.930;2023-04-08T05:43:14;9.50;99.90
19945;DHT22;10134;50.952;6.930;2023-04-08T05:45:42;9.50;99.90
19945;DHT22;10134;50.952;6.930;2023-04-08T05:48:09;9.50;99.90
19945;DHT22;10134;50.952;6.930;2023-04-08T05:50:37;9.50;99.90
19945;DHT22;10134;50.952;6.930;2023-04-08T05:53:04;9.50;99.90
19945;DHT22;10134;50.952;6.930;2023-04-08T05:55:32;9.50;99.90
19945;DHT22;10134;50.952;6.930;2023-04-08T05:57:59;9.50;99.90
19945;DHT22;10134;50.952;6.930;2023-04-08T06:00:26;9.50;99.90
19945;DHT22;10134;50.952;6.930;2023-04-08T06:02:54;9.50;99.90
19945;DHT22;10134;50.952;6.930;2023-04-08T06:05:21;9.50;99.90
19945;DHT22;10134;50.952;6.930;2023-04-08T06:07:49;9.60;99.90
19945;DHT22;10134;50.952;6.930;2023-04-08T06:10:16;9.60;99.90
19945;DHT22;10134;50.952;6.930;2023-04-08T06:12:44;9.50;99.90
19945;DHT22;10134;50.952;6.930;2023-04-08T06:15:11;9.50;99.90
19945;DHT22;10134;50.952;6.930;2023-04-08T06:17:38;9.50;99.90
19945;DHT22;10134;50.952;6.930;2023-04-08T06:20:06;9.50;99.90
19945;DHT22;10134;50.952;6.930;2023-04-08T06:22:35;9.50;99.90
19945;DHT22;10134;50.952;6.930;2023-04-08T06:25:03;9.50;99.90
19945;DHT22;10134;50.952;6.930;2023-04-08T06:27:30;9.50;99.90
19945;DHT22;10134;50.952;6.930;2023-04-08T06:29:58;9.60;99.90
19945;DHT22;10134;50.952;6.930;2023-04-08T06:32:25;9.60;99.90
19945;DHT22;10134;50.952;6.930;2023-04-08T06:34:52;9.60;99.90
19945;DHT22;10134;50.952;6.930;2023-04-08T06:37:19;9.60;99.90
19945;DHT22;10134;50.952;6.930;2023-04-08T06:39:47;9.60;99.90
19945;DHT22;10134;50.952;6.930;2023-04-08T06:42:14;9.60;99.90
19945;DHT22;10134;50.952;6.930;2023-04-08T06:45:04;9.70;99.90
19945;DHT22;10134;50.952;6.930;2023-04-08T06:47:32;9.70;99.90
19945;DHT22;10134;50.952;6.930;2023-04-08T06:49:59;9.70;99.90
19945;DHT22;10134;50.952;6.930;2023-04-08T06:52:26;9.70;99.90
19945;DHT22;10134;50.952;6.930;2023-04-08T06:54:54;9.80;99.90
19945;DHT22;10134;50.952;6.930;2023-04-08T06:57:21;9.80;99.90
19945;DHT22;10134;50.952;6.930;2023-04-08T06:59:48;9.80;99.90
19945;DHT22;10134;50.952;6.930;2023-04-08T07:02:16;9.90;99.90
19945;DHT22;10134;50.952;6.930;2023-04-08T07:04:43;9.90;99.90
19945;DHT22;10134;50.952;6.930;2023-04-08T07:07:13;10.00;99.90
19945;DHT22;10134;50.952;6.930;2023-04-08T07:09:42;10.00;99.90
19945;DHT22;10134;50.952;6.930;2023-04-08T07:12:12;10.00;99.90
19945;DHT22;10134;50.952;6.930;2023-04-08T07:14:39;10.00;99.90
19945;DHT22;10134;50.952;6.930;2023-04-08T07:17:06;10.10;99.90
19945;DHT22;10134;50.952;6.930;2023-04-08T07:19:34;10.10;99.90
19945;DHT22;10134;50.952;6.930;2023-04-08T07:22:02;10.10;99.90
19945;DHT22;10134;50.952;6.930;2023-04-08T07:24:29;10.10;99.90
19945;DHT22;10134;50.952;6.930;2023-04-08T07:26:56;10.20;99.90
19945;DHT22;10134;50.952;6.930;2023-04-08T07:29:24;10.30;99.90
19945;DHT22;10134;50.952;6.930;2023-04-08T07:31:52;10.40;99.90
19945;DHT22;10134;50.952;6.930;2023-04-08T07:34:19;10.40;99.90
19945;DHT22;10134;50.952;6.930;2023-04-08T07:36:46;10.50;99.90
19945;DHT22;10134;50.952;6.930;2023-04-08T07:39:14;10.60;99.90
19945;DHT22;10134;50.952;6.930;2023-04-08T07:41:41;10.60;99.90
19945;DHT22;10134;50.952;6.930;2023-04-08T07:44:08;10.70;99.90
19945;DHT22;10134;50.952;6.930;2023-04-08T07:46:37;10.70;99.90
19945;DHT22;10134;50.952;6.930;2023-04-08T07:49:05;10.80;99.90
19945;DHT22;10134;50.952;6.930;2023-04-08T07:51:32;10.80;99.90
19945;DHT22;10134;50.952;6.930;2023-04-08T07:54:00;10.80;99.90
19945;DHT22;10134;50.952;6.930;2023-04-08T07:56:28;10.80;99.90
19945;DHT22;10134;50.952;6.930;2023-04-08T07:58:59;10.90;99.90
19945;DHT22;10134;50.952;6.930;2023-04-08T08:01:27;10.90;99.90
19945;DHT22;10134;50.952;6.930;2023-04-08T08:03:57;10.90;99.90
19945;DHT22;10134;50.952;6.930;2023-04-08T08:06:25;11.00;99.90
19945;DHT22;10134;50.952;6.930;2023-04-08T08:08:53;11.00;99.90
19945;DHT22;10134;50.952;6.930;2023-04-08T08:11:20;11.00;99.90
19945;DHT22;10134;50.952;6.930;2023-04-08T08:13:48;11.00;99.90
19945;DHT22;10134;50.952;6.930;2023-04-08T08:16:16;11.10;99.90
19945;DHT22;10134;50.952;6.930;2023-04-08T08:18:44;11.10;99.90
19945;DHT22;10134;50.952;6.930;2023-04-08T08:21:11;11.20;99.90
19945;DHT22;10134;50.952;6.930;2023-04-08T08:23:38;11.20;99.90
19945;DHT22;10134;50.952;6.930;2023-04-08T08:26:09;11.30;99.90
19945;DHT22;10134;50.952;6.930;2023-04-08T08:28:38;11.30;99.90
19945;DHT22;10134;50.952;6.930;2023-04-08T08:31:05;11.40;99.90
19945;DHT22;10134;50.952;6.930;2023-04-08T08:33:33;11.40;99.90
19945;DHT22;10134;50.952;6.930;2023-04-08T08:36:00;11.40;99.90
19945;DHT22;10134;50.952;6.930;2023-04-08T08:38:28;11.40;99.90
19945;DHT22;10134;50.952;6.930;2023-04-08T08:40:59;11.50;99.90
19945;DHT22;10134;50.952;6.930;2023-04-08T08:43:28;11.50;99.90
19945;DHT22;10134;50.952;6.930;2023-04-08T08:45:55;11.50;99.90
19945;DHT22;10134;50.952;6.930;2023-04-08T08:48:23;11.60;99.90
19945;DHT22;10134;50.952;6.930;2023-04-08T08:50:51;11.60;99.90
19945;DHT22;10134;50.952;6.930;2023-04-08T08:53:18;11.70;99.90
19945;DHT22;10134;50.952;6.930;2023-04-08T08:55:46;11.70;99.90
19945;DHT22;10134;50.952;6.930;2023-04-08T08:58:17;11.80;99.90
19945;DHT22;10134;50.952;6.930;2023-04-08T09:00:45;11.80;99.90
19945;DHT22;10134;50.952;6.930;2023-04-08T09:06:06;12.00;99.90
19945;DHT22;10134;50.952;6.930;2023-04-08T09:08:35;12.00;99.90
19945;DHT22;10134;50.952;6.930;2023-04-08T09:11:17;12.10;99.90
19945;DHT22;10134;50.952;6.930;2023-04-08T09:13:45;12.20;99.90
19945;DHT22;10134;50.952;6.930;2023-04-08T09:16:14;12.20;99.90
19945;DHT22;10134;50.952;6.930;2023-04-08T09:18:45;12.30;99.90
19945;DHT22;10134;50.952;6.930;2023-04-08T09:21:16;12.30;99.90
19945;DHT22;10134;50.952;6.930;2023-04-08T09:23:46;12.30;99.90
19945;DHT22;10134;50.952;6.930;2023-04-08T09:26:15;12.30;99.90
19945;DHT22;10134;50.952;6.930;2023-04-08T09:28:43;12.40;99.90
19945;DHT22;10134;50.952;6.930;2023-04-08T09:31:25;12.40;99.90
19945;DHT22;10134;50.952;6.930;2023-04-08T09:33:55;12.40;99.90
19945;DHT22;10134;50.952;6.930;2023-04-08T09:36:23;12.40;99.90
19945;DHT22;10134;50.952;6.930;2023-04-08T09:38:53;12.50;99.90
19945;DHT22;10134;50.952;6.930;2023-04-08T09:41:21;12.50;99.90
19945;DHT22;10134;50.952;6.930;2023-04-08T09:43:53;12.50;99.90
19945;DHT22;10134;50.952;6.930;2023-04-08T09:49:13;12.50;99.90
19945;DHT22;10134;50.952;6.930;2023-04-08T09:54:36;12.60;99.90
19945;DHT22;10134;50.952;6.930;2023-04-08T09:57:12;12.70;99.90
19945;DHT22;10134;50.952;6.930;2023-04-08T09:59:47;12.80;99.90
19945;DHT22;10134;50.952;6.930;2023-04-08T10:02:26;12.80;99.90
19945;DHT22;10134;50.952;6.930;2023-04-08T10:04:58;12.90;99.90
19945;DHT22;10134;50.952;6.930;2023-04-08T10:07:26;12.90;99.90
19945;DHT22;10134;50.952;6.930;2023-04-08T10:09:53;13.00;99.90
19945;DHT22;10134;50.952;6.930;2023-04-08T10:12:21;13.10;99.90
19945;DHT22;10134;50.952;6.930;2023-04-08T10:15:23;13.20;99.90
19945;DHT22;10134;50.952;6.930;2023-04-08T10:17:52;13.20;99.90
19945;DHT22;10134;50.952;6.930;2023-04-08T10:23:09;13.30;99.90
19945;DHT22;10134;50.952;6.930;2023-04-08T10:25:39;13.30;99.90
19945;DHT22;10134;50.952;6.930;2023-04-08T10:30:45;13.40;99.90
19945;DHT22;10134;50.952;6.930;2023-04-08T10:33:18;13.40;99.90
19945;DHT22;10134;50.952;6.930;2023-04-08T10:35:52;13.40;99.90
19945;DHT22;10134;50.952;6.930;2023-04-08T10:38:20;13.40;99.90
19945;DHT22;10134;50.952;6.930;2023-04-08T10:40:48;13.40;99.90
19945;DHT22;10134;50.952;6.930;2023-04-08T10:43:18;13.40;99.90
19945;DHT22;10134;50.952;6.930;2023-04-08T10:45:46;13.40;99.90
19945;DHT22;10134;50.952;6.930;2023-04-08T10:48:22;13.40;99.90
19945;DHT22;10134;50.952;6.930;2023-04-08T10:51:01;13.40;99.90
19945;DHT22;10134;50.952;6.930;2023-04-08T10:53:34;13.40;99.90
19945;DHT22;10134;50.952;6.930;2023-04-08T10:56:12;13.50;99.90
19945;DHT22;10134;50.952;6.930;2023-04-08T10:58:52;13.50;99.90
19945;DHT22;10134;50.952;6.930;2023-04-08T11:01:21;13.60;99.90
19945;DHT22;10134;50.952;6.930;2023-04-08T11:03:50;13.50;99.90
19945;DHT22;10134;50.952;6.930;2023-04-08T11:06:18;13.60;99.90
19945;DHT22;10134;50.952;6.930;2023-04-08T11:08:45;13.60;99.90
19945;DHT22;10134;50.952;6.930;2023-04-08T11:11:13;13.60;99.90
19945;DHT22;10134;50.952;6.930;2023-04-08T11:13:44;13.70;99.90
19945;DHT22;10134;50.952;6.930;2023-04-08T11:16:20;13.70;99.90
19945;DHT22;10134;50.952;6.930;2023-04-08T11:18:49;13.70;99.90
19945;DHT22;10134;50.952;6.930;2023-04-08T11:21:17;13.70;99.90
19945;DHT22;10134;50.952;6.930;2023-04-08T11:23:47;13.80;99.90
19945;DHT22;10134;50.952;6.930;2023-04-08T11:26:15;13.80;99.90
19945;DHT22;10134;50.952;6.930;2023-04-08T11:28:43;13.80;99.90
19945;DHT22;10134;50.952;6.930;2023-04-08T11:31:12;13.80;99.90
19945;DHT22;10134;50.952;6.930;2023-04-08T11:33:47;13.90;99.90
19945;DHT22;10134;50.952;6.930;2023-04-08T11:36:17;13.90;99.90
19945;DHT22;10134;50.952;6.930;2023-04-08T11:38:44;14.00;99.90
19945;DHT22;10134;50.952;6.930;2023-04-08T11:41:14;14.00;99.90
19945;DHT22;10134;50.952;6.930;2023-04-08T11:43:53;14.00;99.90
19945;DHT22;10134;50.952;6.930;2023-04-08T11:46:21;14.00;99.90
19945;DHT22;10134;50.952;6.930;2023-04-08T11:49:06;14.00;99.90
19945;DHT22;10134;50.952;6.930;2023-04-08T11:51:51;14.00;99.90
19945;DHT22;10134;50.952;6.930;2023-04-08T11:54:31;13.90;99.90
19945;DHT22;10134;50.952;6.930;2023-04-08T11:56:58;13.90;99.90
19945;DHT22;10134;50.952;6.930;2023-04-08T11:59:26;13.80;99.90
19945;DHT22;10134;50.952;6.930;2023-04-08T12:01:56;13.80;99.90
19945;DHT22;10134;50.952;6.930;2023-04-08T12:04:24;13.80;99.90
19945;DHT22;10134;50.952;6.930;2023-04-08T12:06:52;13.80;99.90
19945;DHT22;10134;50.952;6.930;2023-04-08T12:09:19;13.80;99.90
19945;DHT22;10134;50.952;6.930;2023-04-08T12:11:47;13.80;99.90
19945;DHT22;10134;50.952;6.930;2023-04-08T12:14:14;13.80;99.90
19945;DHT22;10134;50.952;6.930;2023-04-08T12:16:41;13.80;99.90
19945;DHT22;10134;50.952;6.930;2023-04-08T12:19:09;13.80;99.90
19945;DHT22;10134;50.952;6.930;2023-04-08T12:21:36;13.80;99.90
19945;DHT22;10134;50.952;6.930;2023-04-08T12:24:04;13.80;99.90
19945;DHT22;10134;50.952;6.930;2023-04-08T12:26:32;13.70;99.90
19945;DHT22;10134;50.952;6.930;2023-04-08T12:28:59;13.70;99.90
19945;DHT22;10134;50.952;6.930;2023-04-08T12:31:27;13.70;99.90
19945;DHT22;10134;50.952;6.930;2023-04-08T12:33:54;13.70;99.90
19945;DHT22;10134;50.952;6.930;2023-04-08T12:36:22;13.70;99.90
19945;DHT22;10134;50.952;6.930;2023-04-08T12:38:49;13.70;99.90
19945;DHT22;10134;50.952;6.930;2023-04-08T12:41:17;13.70;99.90
19945;DHT22;10134;50.952;6.930;2023-04-08T12:43:44;13.70;99.90
19945;DHT22;10134;50.952;6.930;2023-04-08T12:46:12;13.70;99.90
19945;DHT22;10134;50.952;6.930;2023-04-08T12:48:40;13.60;99.90
19945;DHT22;10134;50.952;6.930;2023-04-08T12:51:08;13.60;99.90
19945;DHT22;10134;50.952;6.930;2023-04-08T12:53:36;13.60;99.90
19945;DHT22;10134;50.952;6.930;2023-04-08T12:56:05;13.60;99.90
19945;DHT22;10134;50.952;6.930;2023-04-08T12:58:33;13.60;99.90
19945;DHT22;10134;50.952;6.930;2023-04-08T13:01:01;13.60;99.90
19945;DHT22;10134;50.952;6.930;2023-04-08T13:03:28;13.60;99.90
19945;DHT22;10134;50.952;6.930;2023-04-08T13:05:58;13.60;99.90
19945;DHT22;10134;50.952;6.930;2023-04-08T13:08:25;13.70;99.90
19945;DHT22;10134;50.952;6.930;2023-04-08T13:10:55;13.70;99.90
19945;DHT22;10134;50.952;6.930;2023-04-08T13:13:22;13.80;99.90
19945;DHT22;10134;50.952;6.930;2023-04-08T13:15:50;13.80;99.90
19945;DHT22;10134;50.952;6.930;2023-04-08T13:18:18;13.80;99.90
19945;DHT22;10134;50.952;6.930;2023-04-08T13:20:46;13.90;99.90
19945;DHT22;10134;50.952;6.930;2023-04-08T13:23:13;13.90;99.90
19945;DHT22;10134;50.952;6.930;2023-04-08T13:25:44;14.00;99.90
19945;DHT22;10134;50.952;6.930;2023-04-08T13:28:14;14.10;99.90
19945;DHT22;10134;50.952;6.930;2023-04-08T13:30:42;14.10;99.90
19945;DHT22;10134;50.952;6.930;2023-04-08T13:33:09;14.30;99.90
19945;DHT22;10134;50.952;6.930;2023-04-08T13:35:37;14.60;99.90
19945;DHT22;10134;50.952;6.930;2023-04-08T13:38:04;14.90;99.90
19945;DHT22;10134;50.952;6.930;2023-04-08T13:40:31;15.20;99.90
19945;DHT22;10134;50.952;6.930;2023-04-08T13:42:59;15.40;99.90
19945;DHT22;10134;50.952;6.930;2023-04-08T13:45:26;15.50;99.90
19945;DHT22;10134;50.952;6.930;2023-04-08T13:47:56;15.60;99.40
19945;DHT22;10134;50.952;6.930;2023-04-08T13:50:24;15.60;98.10
19945;DHT22;10134;50.952;6.930;2023-04-08T13:52:52;15.70;98.10
19945;DHT22;10134;50.952;6.930;2023-04-08T13:55:19;15.70;98.20
19945;DHT22;10134;50.952;6.930;2023-04-08T13:57:47;15.70;97.80
19945;DHT22;10134;50.952;6.930;2023-04-08T14:00:14;15.70;97.50
19945;DHT22;10134;50.952;6.930;2023-04-08T14:02:42;15.60;97.70
19945;DHT22;10134;50.952;6.930;2023-04-08T14:05:10;15.60;97.30
19945;DHT22;10134;50.952;6.930;2023-04-08T14:07:37;15.50;97.50
19945;DHT22;10134;50.952;6.930;2023-04-08T14:10:05;15.50;97.30
19945;DHT22;10134;50.952;6.930;2023-04-08T14:12:33;15.40;97.20
19945;DHT22;10134;50.952;6.930;2023-04-08T14:15:01;15.30;97.30
19945;DHT22;10134;50.952;6.930;2023-04-08T14:17:29;15.20;97.10
19945;DHT22;10134;50.952;6.930;2023-04-08T14:19:56;15.20;97.40
19945;DHT22;10134;50.952;6.930;2023-04-08T14:22:25;15.20;97.60
19945;DHT22;10134;50.952;6.930;2023-04-08T14:24:53;15.20;97.40
19945;DHT22;10134;50.952;6.930;2023-04-08T14:27:20;15.20;97.60
19945;DHT22;10134;50.952;6.930;2023-04-08T14:29:47;15.20;97.60
19945;DHT22;10134;50.952;6.930;2023-04-08T14:32:15;15.20;97.60
19945;DHT22;10134;50.952;6.930;2023-04-08T14:34:42;15.20;97.30
19945;DHT22;10134;50.952;6.930;2023-04-08T14:37:10;15.20;97.00
19945;DHT22;10134;50.952;6.930;2023-04-08T14:39:38;15.20;97.10
19945;DHT22;10134;50.952;6.930;2023-04-08T14:42:05;15.10;97.10
19945;DHT22;10134;50.952;6.930;2023-04-08T14:44:32;15.00;97.10
19945;DHT22;10134;50.952;6.930;2023-04-08T14:47:00;15.00;97.30
19945;DHT22;10134;50.952;6.930;2023-04-08T14:49:28;15.10;97.20
19945;DHT22;10134;50.952;6.930;2023-04-08T14:51:55;15.20;97.20
19945;DHT22;10134;50.952;6.930;2023-04-08T14:54:22;15.30;97.30
19945;DHT22;10134;50.952;6.930;2023-04-08T14:56:50;15.40;97.80
19945;DHT22;10134;50.952;6.930;2023-04-08T14:59:17;15.50;96.80
19945;DHT22;10134;50.952;6.930;2023-04-08T15:01:44;15.70;96.80
19945;DHT22;10134;50.952;6.930;2023-04-08T15:04:12;15.90;96.00
19945;DHT22;10134;50.952;6.930;2023-04-08T15:06:39;16.00;95.70
19945;DHT22;10134;50.952;6.930;2023-04-08T15:09:07;16.20;96.00
19945;DHT22;10134;50.952;6.930;2023-04-08T15:11:34;16.20;95.70
19945;DHT22;10134;50.952;6.930;2023-04-08T15:14:01;16.70;95.80
19945;DHT22;10134;50.952;6.930;2023-04-08T15:16:29;17.20;95.20
19945;DHT22;10134;50.952;6.930;2023-04-08T15:18:56;17.50;94.60
19945;DHT22;10134;50.952;6.930;2023-04-08T15:21:26;17.70;93.50
19945;DHT22;10134;50.952;6.930;2023-04-08T15:23:53;18.20;92.60
19945;DHT22;10134;50.952;6.930;2023-04-08T15:26:21;18.60;91.90
19945;DHT22;10134;50.952;6.930;2023-04-08T15:28:49;19.10;91.60
19945;DHT22;10134;50.952;6.930;2023-04-08T15:31:18;19.60;91.00
19945;DHT22;10134;50.952;6.930;2023-04-08T15:33:47;19.90;89.40
19945;DHT22;10134;50.952;6.930;2023-04-08T15:36:15;20.00;86.20
19945;DHT22;10134;50.952;6.930;2023-04-08T15:38:46;19.80;86.00
19945;DHT22;10134;50.952;6.930;2023-04-08T15:41:16;19.60;85.70
19945;DHT22;10134;50.952;6.930;2023-04-08T15:43:44;19.40;86.50
19945;DHT22;10134;50.952;6.930;2023-04-08T15:46:19;19.20;87.10
19945;DHT22;10134;50.952;6.930;2023-04-08T15:48:47;18.90;88.90
19945;DHT22;10134;50.952;6.930;2023-04-08T15:51:14;18.70;89.50
19945;DHT22;10134;50.952;6.930;2023-04-08T15:53:43;18.50;89.80
19945;DHT22;10134;50.952;6.930;2023-04-08T15:56:16;18.20;90.20
19945;DHT22;10134;50.952;6.930;2023-04-08T15:58:44;18.10;90.70
19945;DHT22;10134;50.952;6.930;2023-04-08T16:01:12;17.90;90.90
19945;DHT22;10134;50.952;6.930;2023-04-08T16:03:40;17.70;91.40